createdAt,value
2023-05-16T05:02:27.316Z,1.83
2023-05-16T05:07:31.289Z,1.25
2023-05-16T05:12:35.021Z,1.20
2023-05-16T05:17:40.106Z,1.10
2023-05-16T05:22:43.785Z,2.40
2023-05-16T05:27:47.607Z,1.27
2023-05-16T05:32:53.413Z,1.40
2023-05-16T05:37:57.366Z,1.42
2023-05-16T05:43:00.921Z,1.40
2023-05-16T05:48:06.353Z,1.47
2023-05-16T05:53:10.071Z,1.67
2023-05-16T05:58:13.612Z,1.50
2023-05-16T06:03:18.667Z,1.30
2023-05-16T06:08:22.324Z,1.23
2023-05-16T06:13:25.962Z,1.87
2023-05-16T06:18:31.070Z,1.77
2023-05-16T06:23:35.837Z,1.83
2023-05-16T06:28:39.460Z,2.05
2023-05-16T06:33:44.449Z,1.80
2023-05-16T06:38:48.004Z,1.90
2023-05-16T06:43:51.758Z,1.58
2023-05-16T06:48:56.815Z,2.17
2023-05-16T06:54:02.840Z,1.40
2023-05-16T06:59:07.931Z,1.65
2023-05-16T07:04:13.020Z,1.40
2023-05-16T07:09:16.838Z,2.05
2023-05-16T07:14:20.530Z,1.63
2023-05-16T07:19:25.973Z,1.47
2023-05-16T07:24:29.788Z,1.67
2023-05-16T07:29:33.390Z,2.47
2023-05-16T07:34:38.403Z,3.17
2023-05-16T07:39:42.185Z,1.80
2023-05-16T07:44:46.251Z,1.73
2023-05-16T07:49:51.364Z,1.83
2023-05-16T07:54:55.090Z,1.67
2023-05-16T07:59:59.025Z,1.48
2023-05-16T08:05:04.089Z,1.20
2023-05-16T08:10:09.173Z,1.48
2023-05-16T08:15:13.820Z,1.20
2023-05-16T08:20:18.765Z,1.23
2023-05-16T08:25:22.651Z,1.23
2023-05-16T08:30:27.742Z,1.17
2023-05-16T08:35:32.788Z,1.42
2023-05-16T08:40:36.670Z,1.02
2023-05-16T08:45:41.888Z,0.90
2023-05-16T08:50:48.138Z,0.50
2023-05-16T08:55:52.910Z,0.98
2023-05-16T09:00:57.298Z,0.70
2023-05-16T09:06:02.997Z,0.68
2023-05-16T09:11:06.912Z,0.32
2023-05-16T09:16:11.946Z,0.30
2023-05-16T09:21:17.971Z,0.60
2023-05-16T09:26:22.083Z,1.05
2023-05-16T09:31:27.595Z,0.47
2023-05-16T09:36:33.674Z,0.40
2023-05-16T09:41:37.561Z,1.05
2023-05-16T09:46:41.953Z,0.40
2023-05-16T09:51:47.215Z,0.88
2023-05-16T09:56:51.771Z,0.20
2023-05-16T10:01:55.941Z,0.20
2023-05-16T10:12:09.521Z,0.30
2023-05-16T10:17:15.863Z,0.30
2023-05-16T10:22:22.261Z,0.47
2023-05-16T10:27:26.684Z,0.30
2023-05-16T10:32:30.724Z,0.20
2023-05-16T10:37:37.043Z,0.20
2023-05-16T10:42:40.759Z,0.52
2023-05-16T10:47:52.977Z,0.40
2023-05-16T10:52:58.517Z,0.40
2023-05-16T10:58:02.097Z,0.20
2023-05-16T11:03:09.862Z,0.20
2023-05-16T11:08:15.905Z,0.32
2023-05-16T11:13:26.145Z,0.50
2023-05-16T11:18:34.008Z,0.82
2023-05-16T11:23:39.086Z,0.45
2023-05-16T11:28:42.727Z,0.65
2023-05-16T11:33:48.071Z,0.20
2023-05-16T11:38:53.099Z,0.62
2023-05-16T11:43:56.675Z,0.25
2023-05-16T11:49:00.479Z,0.30
2023-05-16T11:54:06.171Z,0.73
2023-05-16T11:59:09.895Z,0.22
2023-05-16T12:04:15.124Z,0.28
2023-05-16T12:09:20.232Z,0.25
2023-05-16T12:14:24.401Z,0.20
2023-05-16T12:24:33.515Z,0.40
2023-05-16T12:29:37.150Z,0.22
2023-05-16T12:34:40.794Z,0.30
2023-05-16T12:39:47.171Z,0.45
2023-05-16T12:44:50.861Z,0.40
2023-05-16T12:49:54.499Z,0.50
2023-05-16T12:54:59.832Z,0.50
2023-05-16T13:00:03.740Z,0.20
2023-05-16T13:05:08.555Z,0.65
2023-05-16T13:10:14.004Z,0.25
2023-05-16T13:15:17.900Z,0.30
2023-05-16T13:20:21.614Z,0.37
2023-05-16T13:25:27.057Z,0.57
2023-05-16T13:30:30.937Z,0.30
2023-05-16T13:35:34.740Z,0.20
2023-05-16T13:40:39.954Z,0.30
2023-05-16T13:45:44.223Z,0.30
2023-05-16T13:50:48.061Z,0.20
2023-05-16T13:55:53.118Z,0.40
2023-05-16T14:00:56.778Z,0.40
2023-05-16T14:06:00.509Z,0.22
2023-05-16T14:11:05.884Z,0.30
2023-05-16T14:16:10.376Z,0.37
2023-05-16T14:21:14.506Z,0.30
2023-05-16T14:26:22.702Z,0.40
2023-05-16T14:31:26.423Z,0.62
2023-05-16T14:36:30.066Z,0.40
2023-05-16T14:41:35.059Z,0.50
2023-05-16T14:46:38.709Z,0.35
2023-05-16T14:51:45.028Z,0.30
2023-05-16T14:56:50.128Z,0.40
2023-05-16T15:01:53.951Z,0.30
2023-05-16T15:06:57.641Z,0.40
2023-05-16T15:12:02.853Z,1.55
2023-05-16T15:17:08.903Z,0.20
2023-05-16T15:22:12.957Z,0.82
2023-05-16T15:27:17.982Z,0.20
2023-05-16T15:32:23.250Z,1.17
2023-05-16T15:37:27.261Z,0.20
2023-05-16T15:42:32.283Z,0.17
2023-05-16T15:47:35.974Z,0.45
2023-05-16T15:52:40.008Z,0.20
2023-05-16T15:57:45.018Z,0.22
2023-05-16T16:02:48.752Z,0.22
2023-05-16T16:07:52.430Z,0.60
2023-05-16T16:13:04.671Z,0.40
2023-05-16T16:18:08.344Z,0.73
2023-05-16T16:23:12.488Z,0.40
2023-05-16T16:28:17.672Z,0.20
2023-05-16T16:33:21.477Z,0.30
2023-05-16T16:38:25.125Z,1.00
2023-05-16T16:43:30.256Z,0.40
2023-05-16T16:48:35.096Z,0.20
2023-05-16T16:53:38.879Z,0.40
2023-05-16T16:58:44.129Z,0.40
2023-05-16T17:03:47.885Z,0.30
2023-05-16T17:08:51.697Z,0.50
2023-05-16T17:13:59.340Z,0.37
2023-05-16T17:19:04.598Z,0.40
2023-05-16T17:24:08.919Z,0.20
2023-05-16T17:29:13.915Z,0.35
2023-05-16T17:34:17.678Z,0.55
2023-05-16T17:39:21.620Z,0.93
2023-05-16T17:44:26.600Z,0.80
2023-05-16T17:49:30.357Z,0.20
2023-05-16T17:54:33.992Z,0.20
2023-05-16T17:59:39.299Z,0.65
2023-05-16T18:04:43.156Z,0.20
2023-05-16T18:09:46.897Z,0.65
2023-05-16T18:14:52.361Z,0.20
2023-05-16T18:19:56.297Z,0.73
2023-05-16T18:25:00.144Z,0.45
2023-05-16T18:30:06.823Z,0.40
2023-05-16T18:35:10.882Z,0.10
2023-05-16T18:40:15.045Z,0.22
2023-05-16T18:45:20.890Z,0.20
2023-05-16T18:50:24.680Z,0.20
2023-05-16T18:55:29.007Z,0.50
2023-05-16T19:10:41.858Z,0.20
2023-05-16T19:15:47.045Z,0.30
2023-05-16T19:20:52.511Z,0.43
2023-05-16T19:25:56.395Z,1.20
2023-05-16T19:31:01.605Z,0.30
2023-05-16T19:36:06.703Z,0.37
2023-05-16T19:41:10.321Z,0.25
2023-05-16T19:46:15.521Z,0.87
2023-05-16T19:51:29.555Z,0.50
2023-05-16T19:56:41.191Z,1.42
2023-05-16T20:01:46.160Z,0.33
2023-05-16T20:06:49.849Z,0.43
2023-05-16T20:11:53.777Z,0.23
2023-05-16T20:16:59.261Z,0.88
2023-05-16T20:22:02.922Z,0.52
2023-05-16T20:27:06.800Z,0.30
2023-05-16T20:32:11.883Z,0.50
2023-05-16T20:37:15.688Z,0.35
2023-05-16T20:42:19.368Z,1.07
2023-05-16T20:47:24.317Z,0.60
2023-05-16T20:52:27.966Z,1.15
2023-05-16T20:57:31.549Z,0.80
2023-05-16T21:02:36.546Z,0.57
2023-05-16T21:07:40.183Z,0.70
2023-05-16T21:12:43.805Z,0.40
2023-05-16T21:17:48.872Z,0.43
2023-05-16T21:22:52.549Z,0.32
2023-05-16T21:27:56.330Z,0.87
2023-05-16T21:33:01.524Z,1.23
2023-05-16T21:38:05.360Z,0.40
2023-05-16T21:43:09.219Z,0.90
2023-05-16T21:48:14.225Z,0.60
2023-05-16T21:53:19.114Z,0.60
2023-05-16T21:58:23.453Z,2.35
2023-05-16T22:03:28.569Z,0.47
2023-05-16T22:08:32.271Z,0.57
2023-05-16T22:13:35.880Z,0.87
2023-05-16T22:18:41.022Z,0.50
2023-05-16T22:23:44.728Z,0.55
2023-05-16T22:28:48.315Z,1.23
